Time;durP1;ratioP1;P1;durP2;ratioP2;P2;SDS_P1;SDS_P2;PMS_P1;PMS_P2;Temp;Humidity;BMP_temperature;BMP_pressure;BME280_temperature;BME280_humidity;BME280_pressure;Samples;Min_cycle;Max_cycle;Signal;HPM_P1;HPM_P2
2024/05/04 00:01:48;;;;;;;3.78;1.80;;;7.30;99.90;;;;;;5380909;26;20016;-73
2024/05/04 00:04:14;;;;;;;3.95;1.80;;;7.20;99.90;;;;;;5381154;26;20007;-75
2024/05/04 00:06:39;;;;;;;4.45;1.40;;;7.20;99.90;;;;;;5380746;26;20081;-72
2024/05/04 00:09:05;;;;;;;6.05;1.88;;;7.10;99.90;;;;;;5381207;26;20008;-75
2024/05/04 00:11:31;;;;;;;6.90;1.70;;;7.10;99.90;;;;;;5364167;26;20001;-74
2024/05/04 00:13:56;;;;;;;3.75;2.10;;;7.00;99.90;;;;;;5345811;26;20001;-74
2024/05/04 00:16:22;;;;;;;4.28;1.80;;;7.00;99.90;;;;;;5346296;26;20342;-75
2024/05/04 00:18:48;;;;;;;3.47;1.80;;;7.00;99.90;;;;;;5345873;26;20013;-74
2024/05/04 00:21:14;;;;;;;2.95;1.50;;;6.90;99.90;;;;;;5348518;26;20353;-72
2024/05/04 00:23:43;;;;;;;3.45;1.95;;;6.90;99.90;;;;;;5380824;26;20065;-73
2024/05/04 00:26:08;;;;;;;4.55;1.70;;;6.80;99.90;;;;;;5380714;26;19998;-75
2024/05/04 00:28:34;;;;;;;4.55;2.05;;;6.70;99.90;;;;;;5380708;26;19997;-72
2024/05/04 00:31:00;;;;;;;3.15;1.45;;;6.80;99.90;;;;;;5353978;26;19997;-74
2024/05/04 00:33:26;;;;;;;4.68;1.58;;;6.80;99.90;;;;;;5366737;26;20000;-73
2024/05/04 00:35:51;;;;;;;3.50;1.55;;;6.70;99.90;;;;;;5380809;26;20004;-71
2024/05/04 00:38:17;;;;;;;2.15;1.27;;;6.70;99.90;;;;;;5380741;26;20003;-74
2024/05/04 00:40:43;;;;;;;3.33;1.48;;;6.70;99.90;;;;;;5350018;26;20460;-72
2024/05/04 00:43:11;;;;;;;2.70;1.40;;;6.70;99.90;;;;;;5345526;26;20016;-74
2024/05/04 00:45:37;;;;;;;5.03;1.40;;;6.70;99.90;;;;;;5368188;26;19996;-75
2024/05/04 00:48:04;;;;;;;4.80;1.65;;;6.70;99.90;;;;;;5380414;26;20001;-75
2024/05/04 00:50:30;;;;;;;4.30;1.63;;;6.70;99.90;;;;;;5380037;26;19996;-75
2024/05/04 00:52:57;;;;;;;2.70;1.33;;;6.70;99.90;;;;;;5383308;26;20004;-73
2024/05/04 00:55:24;;;;;;;4.53;1.70;;;6.70;99.90;;;;;;5383687;26;20353;-73
2024/05/04 00:57:54;;;;;;;2.55;1.63;;;6.60;99.90;;;;;;5383520;26;20004;-72
2024/05/04 01:00:20;;;;;;;4.97;1.40;;;6.60;99.90;;;;;;5362037;26;20004;-74
2024/05/04 01:02:47;;;;;;;2.78;1.40;;;6.60;99.90;;;;;;5353734;26;19996;-72
2024/05/04 01:05:15;;;;;;;3.10;1.52;;;6.60;99.90;;;;;;5383665;26;20018;-73
2024/05/04 01:07:41;;;;;;;3.08;1.65;;;6.60;99.90;;;;;;5383784;26;20011;-74
2024/05/04 01:10:07;;;;;;;4.63;1.67;;;6.60;99.90;;;;;;5383698;26;20000;-72
2024/05/04 01:12:32;;;;;;;3.72;1.70;;;6.50;99.90;;;;;;5383613;26;19992;-73
2024/05/04 01:14:58;;;;;;;5.03;1.70;;;6.40;99.90;;;;;;5383695;26;20004;-74
2024/05/04 01:17:24;;;;;;;2.47;1.30;;;6.50;99.90;;;;;;5383477;26;19996;-74
2024/05/04 01:19:49;;;;;;;1.90;1.45;;;6.40;99.90;;;;;;5350818;26;19997;-73
2024/05/04 01:22:16;;;;;;;3.90;1.50;;;6.40;99.90;;;;;;5374218;26;20029;-72
2024/05/04 01:24:41;;;;;;;4.10;1.60;;;6.40;99.90;;;;;;5382893;26;20001;-71
2024/05/04 01:27:07;;;;;;;3.38;1.55;;;6.40;99.90;;;;;;5383488;26;20078;-73
2024/05/04 01:29:33;;;;;;;4.10;1.50;;;6.40;99.90;;;;;;5383481;26;20000;-75
2024/05/04 01:31:58;;;;;;;7.10;1.67;;;6.40;99.90;;;;;;5383484;26;20534;-73
2024/05/04 01:34:24;;;;;;;2.15;1.33;;;6.40;99.90;;;;;;5354176;26;20639;-73
2024/05/04 01:36:50;;;;;;;3.00;1.48;;;6.30;99.90;;;;;;5317915;26;20028;-72
2024/05/04 01:39:15;;;;;;;2.78;1.33;;;6.30;99.90;;;;;;5366204;26;20011;-73
2024/05/04 01:41:44;;;;;;;4.47;1.65;;;6.30;99.90;;;;;;5383353;26;20007;-73
2024/05/04 01:44:10;;;;;;;3.42;1.58;;;6.30;99.90;;;;;;5378022;26;20012;-74
2024/05/04 01:46:47;;;;;;;3.63;1.50;;;6.20;99.90;;;;;;5348554;26;20008;-74
2024/05/04 01:49:13;;;;;;;2.58;1.27;;;6.20;99.90;;;;;;5347996;26;19996;-75
2024/05/04 01:51:43;;;;;;;4.53;1.50;;;6.20;99.90;;;;;;5347702;26;20453;-72
2024/05/04 01:54:09;;;;;;;2.90;1.45;;;6.20;99.90;;;;;;5347869;26;20033;-75
2024/05/04 01:56:35;;;;;;;2.92;1.70;;;6.20;99.90;;;;;;5348546;26;20012;-72
2024/05/04 01:59:01;;;;;;;4.53;1.90;;;6.20;99.90;;;;;;5347959;26;20458;-72
2024/05/04 02:01:27;;;;;;;3.47;1.75;;;6.20;99.90;;;;;;5348068;26;20072;-73
2024/05/04 02:03:53;;;;;;;2.50;1.45;;;6.20;99.90;;;;;;5347440;26;20005;-71
2024/05/04 02:06:18;;;;;;;3.78;1.50;;;6.20;99.90;;;;;;5348406;26;20034;-74
2024/05/04 02:08:44;;;;;;;2.50;1.30;;;6.10;99.90;;;;;;5347579;26;20078;-71
2024/05/04 02:11:10;;;;;;;2.63;1.40;;;6.00;99.90;;;;;;5348111;26;20012;-73
2024/05/04 02:13:35;;;;;;;3.17;1.60;;;6.00;99.90;;;;;;5347433;26;20079;-73
2024/05/04 02:16:01;;;;;;;3.20;1.40;;;5.90;99.90;;;;;;5373857;26;20452;-74
2024/05/04 02:18:26;;;;;;;4.10;1.55;;;5.90;99.90;;;;;;5382464;26;20007;-73
2024/05/04 02:20:52;;;;;;;2.63;1.40;;;5.90;99.90;;;;;;5351387;26;20073;-74
2024/05/04 02:23:19;;;;;;;3.33;1.52;;;5.90;99.90;;;;;;5383213;26;20461;-74
2024/05/04 02:25:47;;;;;;;3.80;1.65;;;5.80;99.90;;;;;;5382188;26;20000;-73
2024/05/04 02:28:13;;;;;;;7.88;1.83;;;5.80;99.90;;;;;;5382575;26;20011;-75
2024/05/04 02:30:39;;;;;;;4.05;1.55;;;5.70;99.90;;;;;;5381976;26;20018;-74
2024/05/04 02:33:09;;;;;;;4.25;2.03;;;5.70;99.90;;;;;;5382481;26;20349;-74
2024/05/04 02:35:35;;;;;;;5.25;1.70;;;5.60;99.90;;;;;;5379900;26;20000;-73
2024/05/04 02:38:01;;;;;;;6.30;1.70;;;5.50;99.90;;;;;;5347575;26;19997;-74
2024/05/04 02:40:26;;;;;;;3.95;1.83;;;5.50;99.90;;;;;;5347389;26;19997;-73
2024/05/04 02:42:52;;;;;;;4.05;1.73;;;5.40;99.90;;;;;;5379405;26;20000;-74
2024/05/04 02:45:18;;;;;;;3.25;1.73;;;5.40;99.90;;;;;;5350657;26;20012;-73
2024/05/04 02:47:44;;;;;;;5.55;1.83;;;5.40;99.90;;;;;;5353323;26;20000;-74
2024/05/04 02:50:10;;;;;;;3.78;1.88;;;5.30;99.90;;;;;;5378235;26;20007;-74
2024/05/04 02:52:35;;;;;;;3.78;1.88;;;5.30;99.90;;;;;;5376870;26;19992;-72
2024/05/04 02:55:01;;;;;;;2.97;1.70;;;5.20;99.90;;;;;;5382175;26;20476;-72
2024/05/04 02:57:27;;;;;;;3.00;2.05;;;5.20;99.90;;;;;;5382072;26;20449;-71
2024/05/04 02:59:53;;;;;;;2.67;1.50;;;5.20;99.90;;;;;;5382394;26;20530;-74
2024/05/04 03:02:19;;;;;;;3.28;1.88;;;5.10;99.90;;;;;;5366333;26;20012;-72
2024/05/04 03:04:45;;;;;;;4.40;1.90;;;5.10;99.90;;;;;;5346908;26;19997;-74
2024/05/04 03:07:10;;;;;;;2.75;1.55;;;5.10;99.90;;;;;;5346792;26;20015;-73
2024/05/04 03:09:36;;;;;;;7.35;1.50;;;5.10;99.90;;;;;;5346720;26;20029;-73
2024/05/04 03:12:02;;;;;;;7.25;1.52;;;5.20;99.90;;;;;;5347016;26;20001;-71
2024/05/04 03:14:27;;;;;;;2.58;1.50;;;5.20;99.90;;;;;;5345724;26;19993;-75
2024/05/04 03:16:53;;;;;;;2.83;1.63;;;5.20;99.90;;;;;;5347141;26;19997;-75
2024/05/04 03:19:20;;;;;;;3.85;1.80;;;5.20;99.90;;;;;;5379365;26;20001;-72
2024/05/04 03:21:46;;;;;;;2.55;1.45;;;5.30;99.90;;;;;;5381824;26;20004;-71
2024/05/04 03:24:15;;;;;;;2.75;1.83;;;5.40;99.90;;;;;;5381307;26;19996;-73
2024/05/04 03:26:40;;;;;;;3.90;2.22;;;5.50;99.90;;;;;;5359227;26;20019;-73
2024/05/04 03:29:07;;;;;;;6.22;2.22;;;5.60;99.90;;;;;;5347155;26;19997;-74
2024/05/04 03:31:32;;;;;;;3.58;2.10;;;5.70;99.90;;;;;;5346657;26;20000;-76
2024/05/04 03:33:58;;;;;;;6.40;2.40;;;5.70;99.90;;;;;;5374072;26;20028;-76
2024/05/04 03:36:24;;;;;;;4.20;2.00;;;5.70;99.90;;;;;;5360227;26;20006;-73
2024/05/04 03:38:50;;;;;;;3.85;1.92;;;5.70;99.90;;;;;;5326249;26;20001;-73
2024/05/04 03:41:15;;;;;;;4.60;2.10;;;5.70;99.90;;;;;;5346898;26;19997;-73
2024/05/04 03:43:41;;;;;;;3.75;2.15;;;5.70;99.90;;;;;;5365694;26;19992;-71
2024/05/04 03:46:07;;;;;;;7.13;2.60;;;5.80;99.90;;;;;;5381982;26;20004;-73
2024/05/04 03:48:33;;;;;;;4.40;2.35;;;5.90;99.90;;;;;;5381209;26;20038;-73
2024/05/04 03:50:58;;;;;;;4.32;2.33;;;5.90;99.90;;;;;;5381356;26;20011;-71
2024/05/04 03:53:24;;;;;;;3.92;2.28;;;5.90;99.90;;;;;;5354753;26;19993;-73
2024/05/04 03:55:50;;;;;;;4.20;2.25;;;5.90;99.90;;;;;;5346900;26;20441;-74
2024/05/04 03:58:15;;;;;;;12.20;6.63;;;6.00;99.90;;;;;;5345850;26;20001;-74
2024/05/04 04:00:41;;;;;;;5.45;2.75;;;6.00;99.90;;;;;;5346182;26;20012;-73
2024/05/04 04:03:06;;;;;;;4.35;2.63;;;6.10;99.90;;;;;;5346240;26;20445;-73
2024/05/04 04:05:32;;;;;;;4.82;2.83;;;6.20;99.90;;;;;;5345858;26;20000;-71
2024/05/04 04:07:58;;;;;;;6.38;3.08;;;6.20;99.90;;;;;;5345360;26;20044;-72
2024/05/04 04:10:23;;;;;;;7.60;3.40;;;6.30;99.90;;;;;;5376204;26;20348;-74
2024/05/04 04:12:49;;;;;;;6.45;3.13;;;6.40;99.90;;;;;;5369644;26;19997;-74
2024/05/04 04:15:15;;;;;;;5.22;2.90;;;6.50;99.90;;;;;;5345397;26;20005;-74
2024/05/04 04:17:41;;;;;;;5.18;2.50;;;6.50;99.90;;;;;;5345581;26;20072;-74
2024/05/04 04:20:07;;;;;;;5.72;2.58;;;6.70;99.90;;;;;;5369270;26;20525;-73
2024/05/04 04:22:33;;;;;;;6.70;2.83;;;6.70;99.90;;;;;;5380391;26;20007;-71
2024/05/04 04:25:02;;;;;;;5.47;3.83;;;6.70;99.90;;;;;;5379971;26;20352;-76
2024/05/04 04:27:28;;;;;;;4.47;2.80;;;6.90;99.90;;;;;;5383523;26;19992;-74
2024/05/04 04:29:54;;;;;;;5.18;2.28;;;6.90;99.90;;;;;;5383606;26;20000;-73
2024/05/04 04:32:19;;;;;;;4.85;2.63;;;6.90;99.90;;;;;;5383490;26;20012;-72
2024/05/04 04:34:45;;;;;;;43.08;15.98;;;7.00;99.90;;;;;;5382723;26;20440;-73
2024/05/04 04:37:10;;;;;;;23.42;9.80;;;7.10;99.90;;;;;;5383586;26;20472;-75
2024/05/04 04:39:36;;;;;;;64.53;24.38;;;7.20;99.90;;;;;;5383228;26;20024;-71
2024/05/04 04:42:02;;;;;;;37.15;15.80;;;7.30;99.90;;;;;;5383080;26;20364;-72
2024/05/04 04:44:27;;;;;;;18.23;8.50;;;7.30;99.90;;;;;;5383172;26;20004;-73
2024/05/04 04:46:53;;;;;;;9.65;4.53;;;7.40;99.90;;;;;;5359013;26;20005;-72
2024/05/04 04:49:19;;;;;;;24.88;10.55;;;7.50;99.90;;;;;;5348666;26;20330;-72
2024/05/04 04:51:45;;;;;;;9.40;5.35;;;7.60;99.90;;;;;;5347226;26;20353;-75
2024/05/04 04:54:10;;;;;;;15.43;7.72;;;7.70;99.90;;;;;;5345969;26;20012;-72
2024/05/04 04:56:36;;;;;;;8.15;4.30;;;7.80;99.90;;;;;;5348171;26;20345;-72
2024/05/04 04:59:02;;;;;;;11.45;6.07;;;7.90;99.90;;;;;;5348035;26;20015;-72
2024/05/04 05:01:28;;;;;;;52.63;21.50;;;8.00;99.90;;;;;;5347877;26;20012;-75
2024/05/04 05:03:53;;;;;;;32.63;12.35;;;8.00;99.90;;;;;;5365817;26;20641;-73
2024/05/04 05:06:19;;;;;;;7.35;4.07;;;8.00;99.90;;;;;;5382988;26;19997;-75
2024/05/04 05:08:44;;;;;;;7.00;3.47;;;8.00;99.90;;;;;;5383320;26;20374;-73
2024/05/04 05:11:21;;;;;;;5.20;3.17;;;8.10;99.90;;;;;;5368226;26;20008;-72
2024/05/04 05:13:46;;;;;;;5.88;3.67;;;8.20;99.90;;;;;;5382323;26;19996;-72
2024/05/04 05:16:12;;;;;;;7.85;3.28;;;8.30;99.90;;;;;;5373610;26;20037;-72
2024/05/04 05:18:37;;;;;;;7.75;3.20;;;8.40;99.90;;;;;;5369034;26;20001;-73
2024/05/04 05:21:03;;;;;;;5.75;3.40;;;8.50;99.90;;;;;;5358986;26;20001;-72
2024/05/04 05:23:29;;;;;;;10.00;3.88;;;8.50;99.90;;;;;;5347551;26;20008;-75
2024/05/04 05:25:54;;;;;;;7.00;3.85;;;8.60;99.90;;;;;;5347595;26;20015;-73
2024/05/04 05:28:20;;;;;;;9.15;4.90;;;8.70;99.90;;;;;;5347784;26;20483;-73
2024/05/04 05:30:45;;;;;;;9.82;5.60;;;8.90;99.90;;;;;;5347870;26;20317;-73
2024/05/04 05:33:11;;;;;;;14.23;7.85;;;9.00;99.90;;;;;;5353749;26;20000;-73
2024/05/04 05:35:37;;;;;;;24.50;10.50;;;9.10;99.90;;;;;;5382134;26;20036;-75
2024/05/04 05:38:03;;;;;;;20.83;9.23;;;9.30;99.90;;;;;;5382119;26;20293;-75
2024/05/04 05:40:29;;;;;;;27.80;13.73;;;9.40;99.90;;;;;;5382315;26;20000;-72
2024/05/04 05:42:54;;;;;;;19.02;9.18;;;9.60;99.90;;;;;;5382589;26;20007;-74
2024/05/04 05:45:20;;;;;;;18.30;8.77;;;9.60;99.90;;;;;;5382223;26;19993;-73
2024/05/04 05:47:45;;;;;;;10.18;5.47;;;9.70;99.90;;;;;;5356323;26;20073;-72
2024/05/04 05:50:11;;;;;;;13.25;4.90;;;9.90;99.90;;;;;;5348052;26;20066;-71
2024/05/04 05:52:37;;;;;;;13.93;5.97;;;9.90;99.90;;;;;;5375977;26;20073;-72
2024/05/04 05:55:02;;;;;;;15.20;7.80;;;10.10;99.90;;;;;;5382359;26;19992;-72
2024/05/04 05:57:28;;;;;;;33.03;14.70;;;10.20;99.90;;;;;;5381510;26;20012;-76
2024/05/04 05:59:54;;;;;;;28.23;13.45;;;10.30;99.90;;;;;;5378537;26;20008;-74
2024/05/04 06:02:20;;;;;;;17.67;9.07;;;10.40;99.90;;;;;;5365139;26;20005;-75
2024/05/04 06:04:45;;;;;;;24.63;10.73;;;10.60;99.90;;;;;;5346302;26;20001;-72
2024/05/04 06:07:11;;;;;;;31.02;13.65;;;10.80;99.90;;;;;;5349234;26;20023;-72
2024/05/04 06:09:36;;;;;;;27.02;12.52;;;11.00;99.90;;;;;;5343329;26;20008;-72
2024/05/04 06:12:02;;;;;;;8.45;5.70;;;11.20;99.90;;;;;;5364016;26;20010;-74
2024/05/04 06:14:28;;;;;;;16.85;6.55;;;11.40;99.90;;;;;;5349829;26;20011;-73
2024/05/04 06:16:53;;;;;;;26.38;15.10;;;11.50;99.90;;;;;;5345063;26;20012;-72
2024/05/04 06:19:19;;;;;;;31.08;15.50;;;11.70;99.90;;;;;;5371583;26;20432;-73
2024/05/04 06:21:45;;;;;;;16.42;8.18;;;11.90;99.90;;;;;;5368342;26;20000;-73
2024/05/04 06:24:11;;;;;;;15.27;7.53;;;12.20;99.90;;;;;;5354732;26;20008;-73
2024/05/04 06:26:37;;;;;;;7.78;4.82;;;12.40;99.90;;;;;;5353163;26;20032;-76
2024/05/04 06:29:03;;;;;;;18.30;9.00;;;12.50;99.90;;;;;;5341271;26;20000;-73
2024/05/04 06:31:28;;;;;;;14.98;7.97;;;12.60;99.90;;;;;;5353108;26;19996;-75
2024/05/04 06:33:54;;;;;;;18.52;11.77;;;12.70;99.90;;;;;;5359879;26;20013;-75
2024/05/04 06:36:19;;;;;;;12.40;7.68;;;12.80;99.90;;;;;;5349474;26;20008;-72
2024/05/04 06:38:45;;;;;;;15.85;8.45;;;12.90;99.90;;;;;;5318173;26;20005;-74
2024/05/04 06:41:11;;;;;;;20.80;11.57;;;12.90;99.90;;;;;;5345376;26;20465;-74
2024/05/04 06:43:36;;;;;;;17.15;7.97;;;12.80;99.90;;;;;;5343483;26;20001;-75
2024/05/04 06:46:02;;;;;;;8.65;5.05;;;12.80;99.90;;;;;;5350892;26;20461;-73
2024/05/04 06:48:28;;;;;;;11.35;7.40;;;12.70;99.90;;;;;;5366562;26;19997;-74
2024/05/04 06:50:53;;;;;;;10.25;5.03;;;12.90;99.90;;;;;;5345333;26;20008;-74
2024/05/04 06:53:19;;;;;;;9.10;3.70;;;13.00;99.90;;;;;;5346581;26;20455;-75
2024/05/04 06:55:45;;;;;;;7.30;4.00;;;13.10;99.90;;;;;;5346647;26;20001;-74
2024/05/04 06:58:10;;;;;;;8.00;3.60;;;13.30;99.90;;;;;;5353441;26;19992;-77
2024/05/04 07:00:36;;;;;;;8.50;3.65;;;13.50;99.90;;;;;;5347946;26;20000;-73
2024/05/04 07:03:01;;;;;;;5.20;3.17;;;13.50;99.90;;;;;;5374618;26;20010;-74
2024/05/04 07:05:27;;;;;;;8.13;3.70;;;13.80;99.90;;;;;;5365211;26;20353;-73
2024/05/04 07:07:52;;;;;;;6.13;3.38;;;14.10;99.90;;;;;;5346238;26;19993;-74
2024/05/04 07:10:18;;;;;;;5.65;3.22;;;14.10;99.90;;;;;;5345464;26;20069;-75
2024/05/04 07:12:44;;;;;;;8.57;4.38;;;14.50;99.90;;;;;;5346354;26;20007;-74
2024/05/04 07:15:09;;;;;;;9.65;4.80;;;14.50;99.90;;;;;;5346098;26;20056;-73
2024/05/04 07:17:36;;;;;;;8.43;4.38;;;14.70;99.90;;;;;;5346212;26;20072;-73
2024/05/04 07:20:01;;;;;;;5.35;3.20;;;14.90;99.90;;;;;;5346408;26;20033;-73
2024/05/04 07:22:28;;;;;;;6.97;3.10;;;15.40;99.90;;;;;;5346983;26;20015;-74
2024/05/04 07:24:54;;;;;;;32.50;18.00;;;15.50;99.90;;;;;;5346692;26;20416;-75
2024/05/04 07:27:19;;;;;;;25.58;14.80;;;15.60;99.90;;;;;;5356194;26;20082;-73
2024/05/04 07:29:45;;;;;;;8.38;4.80;;;15.70;99.90;;;;;;5333202;26;20027;-73
2024/05/04 07:32:11;;;;;;;9.07;4.15;;;15.50;99.90;;;;;;5346314;26;20001;-73
2024/05/04 07:34:36;;;;;;;7.63;3.25;;;15.40;99.90;;;;;;5354645;26;20451;-75
2024/05/04 07:37:02;;;;;;;5.63;3.20;;;15.50;99.90;;;;;;5380575;26;20000;-73
2024/05/04 07:39:27;;;;;;;11.60;8.27;;;15.60;99.90;;;;;;5380989;26;19992;-71
2024/05/04 07:41:55;;;;;;;12.48;8.40;;;15.90;99.90;;;;;;5356051;26;20392;-73
2024/05/04 07:44:20;;;;;;;7.78;5.07;;;16.00;99.90;;;;;;5345250;26;20123;-75
2024/05/04 07:46:47;;;;;;;5.32;3.08;;;16.20;99.90;;;;;;5345893;26;20013;-72
2024/05/04 07:49:12;;;;;;;5.97;2.78;;;16.50;99.90;;;;;;5378603;26;20010;-76
2024/05/04 07:51:38;;;;;;;5.97;2.92;;;17.00;99.90;;;;;;5380703;26;20341;-73
2024/05/04 07:54:04;;;;;;;4.10;2.28;;;17.90;99.90;;;;;;5380573;26;20008;-75
2024/05/04 07:56:30;;;;;;;3.67;2.05;;;18.80;96.90;;;;;;5364554;26;19997;-72
2024/05/04 07:58:56;;;;;;;5.97;2.20;;;20.50;93.10;;;;;;5345683;26;20025;-74
2024/05/04 08:01:21;;;;;;;9.25;3.08;;;22.40;84.10;;;;;;5345028;26;20020;-72
2024/05/04 08:03:47;;;;;;;4.85;2.38;;;24.00;74.20;;;;;;5375487;26;20015;-73
2024/05/04 08:06:13;;;;;;;7.57;2.08;;;24.10;69.00;;;;;;5380580;26;20008;-72
2024/05/04 08:08:39;;;;;;;3.22;1.50;;;24.50;67.30;;;;;;5365953;26;20005;-75
2024/05/04 08:11:05;;;;;;;4.10;1.70;;;26.20;63.70;;;;;;5345436;26;20436;-74
2024/05/04 08:13:31;;;;;;;2.95;1.30;;;27.10;58.80;;;;;;5345234;26;20020;-72
2024/05/04 08:15:56;;;;;;;3.17;1.60;;;28.40;55.00;;;;;;5345013;26;19997;-72
2024/05/04 08:18:22;;;;;;;5.15;2.08;;;28.40;53.70;;;;;;5345554;26;20001;-71
2024/05/04 08:20:48;;;;;;;3.13;1.75;;;27.40;52.00;;;;;;5345599;26;20378;-73
2024/05/04 08:23:14;;;;;;;4.53;1.30;;;25.90;54.30;;;;;;5345330;26;20009;-74
2024/05/04 08:25:40;;;;;;;6.10;1.38;;;24.30;57.30;;;;;;5369394;26;20011;-73
2024/05/04 08:28:06;;;;;;;3.60;1.40;;;23.30;58.40;;;;;;5380292;26;20299;-72
2024/05/04 08:30:34;;;;;;;7.13;2.63;;;22.90;59.70;;;;;;5380427;26;20014;-73
2024/05/04 08:33:00;;;;;;;6.28;1.40;;;22.40;61.10;;;;;;5358926;26;20333;-72
2024/05/04 08:35:26;;;;;;;4.20;1.13;;;22.00;60.00;;;;;;5379826;26;20003;-73
2024/05/04 08:37:51;;;;;;;5.43;1.70;;;21.70;62.80;;;;;;5332251;26;20336;-75
2024/05/04 08:40:17;;;;;;;5.75;1.88;;;21.40;63.20;;;;;;5311072;27;20017;-71
2024/05/04 08:42:43;;;;;;;4.25;1.60;;;21.00;64.30;;;;;;5310195;27;19998;-73
2024/05/04 08:45:10;;;;;;;3.30;1.60;;;20.60;65.00;;;;;;5309654;27;20438;-71
2024/05/04 08:47:37;;;;;;;3.50;1.60;;;20.40;66.30;;;;;;5311056;27;20017;-74
2024/05/04 08:50:03;;;;;;;4.32;1.63;;;20.30;66.70;;;;;;5310753;27;19998;-74
2024/05/04 08:52:30;;;;;;;4.30;1.70;;;19.90;67.90;;;;;;5337770;26;20339;-73
2024/05/04 08:54:56;;;;;;;5.90;1.67;;;19.90;68.60;;;;;;5310060;27;20409;-71
2024/05/04 08:57:23;;;;;;;3.88;1.65;;;19.80;69.10;;;;;;5310804;27;20049;-72
2024/05/04 08:59:50;;;;;;;5.05;2.10;;;19.70;69.70;;;;;;5310374;27;19997;-71
2024/05/04 09:02:17;;;;;;;4.68;1.98;;;19.70;69.60;;;;;;5310597;27;20001;-72
2024/05/04 09:04:43;;;;;;;6.00;2.67;;;19.60;70.30;;;;;;5309948;27;19997;-73
2024/05/04 09:07:09;;;;;;;5.80;2.85;;;19.90;69.90;;;;;;5309317;27;20347;-71
2024/05/04 09:09:35;;;;;;;5.47;1.88;;;20.20;68.00;;;;;;5309666;27;20005;-73
2024/05/04 09:12:01;;;;;;;4.55;1.77;;;21.00;66.90;;;;;;5309748;27;21080;-76
2024/05/04 09:14:27;;;;;;;4.28;1.92;;;22.10;64.30;;;;;;5312289;27;20005;-72
2024/05/04 09:16:52;;;;;;;4.00;1.88;;;23.60;61.60;;;;;;5313114;27;20005;-75
2024/05/04 09:19:18;;;;;;;3.75;1.60;;;25.00;58.00;;;;;;5313199;27;20397;-75
2024/05/04 09:21:44;;;;;;;3.85;1.30;;;25.90;56.20;;;;;;5313067;27;20010;-75
2024/05/04 09:24:11;;;;;;;4.57;1.67;;;27.70;53.50;;;;;;5312887;27;19993;-73
2024/05/04 09:26:37;;;;;;;7.38;1.90;;;29.40;50.10;;;;;;5312946;27;20039;-74
2024/05/04 09:29:02;;;;;;;5.15;1.80;;;31.80;47.20;;;;;;5313174;27;19997;-72
2024/05/04 09:31:29;;;;;;;3.33;1.23;;;33.00;44.20;;;;;;5313223;27;20016;-73
2024/05/04 09:33:56;;;;;;;5.97;1.67;;;33.30;41.40;;;;;;5312780;27;20063;-73
2024/05/04 09:36:22;;;;;;;3.90;1.73;;;33.20;41.20;;;;;;5311671;26;20393;-72
2024/05/04 09:38:56;;;;;;;3.63;1.23;;;33.40;40.70;;;;;;5313152;27;20002;-73
2024/05/04 09:41:23;;;;;;;5.47;1.88;;;33.90;39.60;;;;;;5313418;27;20002;-75
2024/05/04 09:43:49;;;;;;;3.42;1.48;;;33.20;39.60;;;;;;5312730;27;20469;-73
2024/05/04 09:46:16;;;;;;;4.78;1.30;;;33.40;39.10;;;;;;5313130;27;20002;-75
2024/05/04 09:48:42;;;;;;;2.72;1.42;;;33.60;38.90;;;;;;5313008;27;20002;-75
2024/05/04 09:51:09;;;;;;;3.97;1.20;;;33.00;39.60;;;;;;5312835;27;20014;-75
2024/05/04 09:53:36;;;;;;;3.50;1.30;;;33.10;39.40;;;;;;5312667;27;19993;-72
2024/05/04 09:56:03;;;;;;;3.63;1.90;;;33.20;39.30;;;;;;5313030;27;20001;-72
2024/05/04 09:58:29;;;;;;;5.18;1.52;;;33.30;39.20;;;;;;5313263;27;20001;-75
2024/05/04 10:00:59;;;;;;;5.85;2.15;;;32.40;39.70;;;;;;5313138;27;20338;-76
2024/05/04 10:03:29;;;;;;;5.80;2.00;;;31.20;40.50;;;;;;5312624;27;20004;-72
2024/05/04 10:05:56;;;;;;;7.95;1.70;;;31.10;40.50;;;;;;5312836;27;20077;-74
2024/05/04 10:08:22;;;;;;;4.93;1.60;;;30.90;41.70;;;;;;5312972;27;20001;-72
2024/05/04 10:10:47;;;;;;;5.82;2.35;;;30.50;41.40;;;;;;5313009;27;20342;-74
2024/05/04 10:13:15;;;;;;;4.05;1.75;;;29.60;42.70;;;;;;5312958;27;20082;-74
2024/05/04 10:15:41;;;;;;;4.78;2.05;;;27.80;45.00;;;;;;5312663;27;20083;-73
2024/05/04 10:18:11;;;;;;;4.78;1.77;;;27.70;44.60;;;;;;5312591;27;20021;-75
2024/05/04 10:20:47;;;;;;;5.63;1.67;;;27.60;44.30;;;;;;5312772;27;20034;-72
2024/05/04 10:23:17;;;;;;;3.65;1.50;;;27.10;45.50;;;;;;5312740;27;20385;-74
2024/05/04 10:25:50;;;;;;;4.78;1.20;;;26.70;46.10;;;;;;5312605;27;20009;-75
2024/05/04 10:28:17;;;;;;;5.30;1.30;;;26.70;45.40;;;;;;5312594;27;20005;-74
2024/05/04 10:30:51;;;;;;;6.38;1.52;;;26.60;46.40;;;;;;5312782;27;20345;-73
2024/05/04 10:33:17;;;;;;;4.13;1.85;;;26.60;46.00;;;;;;5313270;27;20326;-74
2024/05/04 10:35:43;;;;;;;5.45;1.90;;;26.60;45.80;;;;;;5312572;27;20096;-73
2024/05/04 10:38:08;;;;;;;5.80;1.60;;;26.30;46.20;;;;;;5312485;27;20009;-74
2024/05/04 10:40:38;;;;;;;3.28;1.70;;;26.60;46.20;;;;;;5312354;27;20039;-71
2024/05/04 10:43:04;;;;;;;4.45;1.75;;;26.10;46.20;;;;;;5312366;27;20005;-71
2024/05/04 10:45:30;;;;;;;3.05;1.60;;;25.90;46.90;;;;;;5312121;27;20318;-76
2024/05/04 10:47:55;;;;;;;3.40;1.70;;;25.50;47.90;;;;;;5312427;27;19998;-74
2024/05/04 10:50:21;;;;;;;5.18;1.80;;;25.30;48.00;;;;;;5312224;27;20052;-74
2024/05/04 10:52:47;;;;;;;3.08;1.40;;;25.10;47.40;;;;;;5311958;27;19997;-74
2024/05/04 10:55:14;;;;;;;4.10;1.23;;;24.80;48.30;;;;;;5312026;27;20006;-74
2024/05/04 10:57:40;;;;;;;4.45;1.60;;;24.50;48.50;;;;;;5312316;27;19998;-75
2024/05/04 11:00:08;;;;;;;5.63;1.48;;;24.30;48.80;;;;;;5312424;27;20012;-73
2024/05/04 11:02:34;;;;;;;6.22;1.90;;;24.40;49.40;;;;;;5312272;27;20338;-73
2024/05/04 11:05:01;;;;;;;4.80;1.60;;;24.60;49.10;;;;;;5311552;27;20045;-72
2024/05/04 11:07:27;;;;;;;4.38;1.40;;;24.30;50.20;;;;;;5312105;27;20367;-73
2024/05/04 11:09:53;;;;;;;5.10;1.05;;;24.30;50.10;;;;;;5312554;27;20011;-75
2024/05/04 11:12:20;;;;;;;5.80;1.60;;;24.50;50.60;;;;;;5312108;27;20005;-74
2024/05/04 11:14:46;;;;;;;2.88;1.23;;;24.30;50.20;;;;;;5311698;27;20005;-73
2024/05/04 11:17:19;;;;;;;5.10;1.40;;;24.30;49.40;;;;;;5311917;27;19994;-75
2024/05/04 11:19:45;;;;;;;3.55;1.38;;;24.30;49.70;;;;;;5311903;27;20008;-75
2024/05/04 11:22:12;;;;;;;4.55;1.38;;;23.80;50.40;;;;;;5281792;27;20001;-74
2024/05/04 11:24:38;;;;;;;2.53;1.58;;;23.90;50.00;;;;;;5311610;27;20011;-73
2024/05/04 11:27:07;;;;;;;2.90;1.02;;;24.20;48.90;;;;;;5312131;27;20001;-76
2024/05/04 11:29:33;;;;;;;3.13;1.20;;;24.20;48.60;;;;;;5311233;27;20461;-71
2024/05/04 11:31:59;;;;;;;6.50;1.48;;;23.90;49.10;;;;;;5311796;27;19998;-71
2024/05/04 11:34:25;;;;;;;5.07;1.10;;;23.50;49.50;;;;;;5281240;27;20426;-74
2024/05/04 11:36:50;;;;;;;5.25;1.20;;;23.40;48.90;;;;;;5310713;27;20001;-74
2024/05/04 11:39:16;;;;;;;4.65;1.00;;;23.40;49.50;;;;;;5311414;27;20419;-75
2024/05/04 11:41:42;;;;;;;3.92;0.73;;;23.40;48.50;;;;;;5311521;27;20014;-73
2024/05/04 11:44:08;;;;;;;4.10;1.27;;;23.40;48.90;;;;;;5311244;27;20015;-73
2024/05/04 11:46:35;;;;;;;4.80;1.00;;;23.30;49.20;;;;;;5311484;27;20013;-72
2024/05/04 11:49:01;;;;;;;4.32;0.95;;;23.50;49.10;;;;;;5311541;27;20002;-74
2024/05/04 11:51:27;;;;;;;5.43;1.25;;;23.30;48.70;;;;;;5311265;27;19997;-75
2024/05/04 11:53:53;;;;;;;4.45;1.15;;;23.60;48.60;;;;;;5311119;27;20450;-74
2024/05/04 11:56:19;;;;;;;3.28;1.00;;;23.90;47.90;;;;;;5311312;27;20004;-75
2024/05/04 11:58:44;;;;;;;2.22;0.73;;;23.70;48.50;;;;;;5311464;27;20001;-72
2024/05/04 12:01:10;;;;;;;1.77;0.82;;;23.40;48.60;;;;;;5311197;27;20001;-74
2024/05/04 12:03:37;;;;;;;1.63;0.60;;;23.40;48.10;;;;;;5310910;27;20079;-74
2024/05/04 12:06:03;;;;;;;1.58;0.88;;;23.30;47.80;;;;;;5311319;27;20033;-76
2024/05/04 12:08:29;;;;;;;3.03;1.10;;;23.80;47.40;;;;;;5311113;27;19998;-72
2024/05/04 12:10:54;;;;;;;1.65;0.80;;;23.90;47.40;;;;;;5311051;27;20001;-75
2024/05/04 12:13:20;;;;;;;2.63;1.05;;;23.90;48.60;;;;;;5310647;27;20002;-74
2024/05/04 12:15:46;;;;;;;6.50;1.15;;;23.70;47.60;;;;;;5310951;27;20330;-74
2024/05/04 12:18:11;;;;;;;2.45;0.70;;;23.40;48.50;;;;;;5311383;27;20071;-74
2024/05/04 12:20:37;;;;;;;2.33;0.77;;;23.50;49.30;;;;;;5310943;27;19997;-73
2024/05/04 12:23:03;;;;;;;2.70;0.93;;;23.80;49.10;;;;;;5311030;27;20006;-73
2024/05/04 12:25:28;;;;;;;2.42;1.10;;;23.70;48.50;;;;;;5311034;27;20454;-73
2024/05/04 12:27:54;;;;;;;1.80;0.80;;;24.00;48.00;;;;;;5311006;27;20508;-74
2024/05/04 12:30:21;;;;;;;2.45;0.88;;;23.70;47.90;;;;;;5310862;27;20074;-74
2024/05/04 12:32:48;;;;;;;2.85;0.65;;;23.80;48.40;;;;;;5311199;27;20010;-71
2024/05/04 12:35:13;;;;;;;0.90;0.57;;;23.90;48.30;;;;;;5311012;27;19994;-72
2024/05/04 12:37:39;;;;;;;2.08;0.80;;;23.90;48.50;;;;;;5310450;27;20016;-72
2024/05/04 12:40:06;;;;;;;2.58;0.90;;;23.60;49.20;;;;;;5280806;27;20308;-74
2024/05/04 12:42:31;;;;;;;1.77;0.73;;;23.60;48.60;;;;;;5310589;27;20016;-74
2024/05/04 12:44:57;;;;;;;5.65;1.10;;;23.80;48.40;;;;;;5310726;27;20005;-75